Time,TemperatureF,DewpointF,PressureIn,WindDirection,WindDirectionDegrees,WindSpeedMPH,WindSpeedGustMPH,Humidity,HourlyPrecipIn,Conditions,Clouds,dailyrainin,SoftwareType,DateUTC
2013-09-21 01:00:00,58.0,-99.9,-100.00,ENE,73,4.0,7.0,-999,-99.99,,,-99.99,,2013-09-21 06:00:00,
2013-09-21 01:42:00,58.0,-99.9,-100.00,ENE,73,4.0,7.0,-999,-99.99,,,-99.99,,2013-09-21 06:42:00,
2013-09-21 01:53:00,58.0,-99.9,-100.00,ENE,73,4.0,7.0,-999,-99.99,,,-99.99,,2013-09-21 06:53:00,
2013-09-21 02:30:00,58.0,-99.9,-100.00,East,83,11.0,11.0,-999,-99.99,,,-99.99,,2013-09-21 07:30:00,
2013-09-21 03:22:00,58.0,-99.9,-100.00,East,83,11.0,11.0,-999,-99.99,,,-99.99,,2013-09-21 08:22:00,
2013-09-21 04:54:00,58.0,-99.9,-100.00,ENE,77,8.0,9.0,-999,-99.99,,,-99.99,,2013-09-21 09:54:00,
2013-09-21 05:03:00,58.0,-99.9,-100.00,ENE,77,8.0,9.0,-999,-99.99,,,-99.99,,2013-09-21 10:03:00,
2013-09-21 05:40:00,58.0,-99.9,-100.00,ENE,64,7.0,12.0,-999,-99.99,,,-99.99,,2013-09-21 10:40:00,
2013-09-21 06:23:00,58.0,-99.9,-100.00,ENE,64,7.0,12.0,-999,-99.99,,,-99.99,,2013-09-21 11:23:00,
2013-09-21 06:33:00,58.0,-99.9,-100.00,ENE,64,7.0,12.0,-999,-99.99,,,-99.99,,2013-09-21 11:33:00,
2013-09-21 07:30:00,57.0,-99.9,-100.00,NNE,14,2.0,9.0,-999,-99.99,,,-99.99,,2013-09-21 12:30:00,
2013-09-21 08:22:00,57.0,-99.9,-100.00,NNE,14,2.0,9.0,-999,-99.99,,,-99.99,,2013-09-21 13:22:00,
2013-09-21 09:55:00,58.0,-99.9,-100.00,WSW,244,4.0,7.0,-999,-99.99,,,-99.99,,2013-09-21 14:55:00,
2013-09-21 10:22:00,58.0,-99.9,-100.00,ENE,59,5.0,7.0,-999,-99.99,,,-99.99,,2013-09-21 15:22:00,
2013-09-21 10:45:00,58.0,-99.9,-100.00,WSW,244,4.0,7.0,-999,-99.99,,,-99.99,,2013-09-21 15:45:00,
2013-09-21 12:43:00,62.0,-99.9,-100.00,NNE,25,2.0,6.0,-999,-99.99,,,-99.99,,2013-09-21 17:43:00,
2013-09-21 12:53:00,62.0,-99.9,-100.00,NNE,25,2.0,6.0,-999,-99.99,,,-99.99,,2013-09-21 17:53:00,
2013-09-21 13:22:00,68.0,-99.9,-100.00,West,273,2.0,3.0,-999,-99.99,,,-99.99,,2013-09-21 18:22:00,
2013-09-21 13:33:00,68.0,-99.9,-100.00,West,273,2.0,3.0,-999,-99.99,,,-99.99,,2013-09-21 18:33:00,
2013-09-21 13:42:00,68.0,-99.9,-100.00,West,273,2.0,3.0,-999,-99.99,,,-99.99,,2013-09-21 18:42:00,
2013-09-21 14:12:00,65.0,-99.9,-100.00,ENE,58,1.0,10.0,-999,-99.99,,,-99.99,,2013-09-21 19:12:00,
2013-09-21 16:12:00,68.0,-99.9,-100.00,ENE,70,6.0,10.0,-999,-99.99,,,-99.99,,2013-09-21 21:12:00,
2013-09-21 18:13:00,74.0,-99.9,-100.00,ENE,70,6.0,11.0,-999,-99.99,,,-99.99,,2013-09-21 23:13:00,
2013-09-21 18:23:00,74.0,-99.9,-100.00,ENE,70,6.0,11.0,-999,-99.99,,,-99.99,,2013-09-21 23:23:00,
2013-09-21 20:00:00,65.0,-99.9,-100.00,WNW,303,2.0,4.0,-999,-99.99,,,-99.99,,2013-09-22 01:00:00,
2013-09-21 20:12:00,68.0,-99.9,-100.00,ENE,61,3.0,6.0,-999,-99.99,,,-99.99,,2013-09-22 01:12:00,
2013-09-21 20:22:00,68.0,-99.9,-100.00,ENE,61,3.0,6.0,-999,-99.99,,,-99.99,,2013-09-22 01:22:00,
2013-09-21 20:42:00,65.0,-99.9,-100.00,WNW,303,2.0,4.0,-999,-99.99,,,-99.99,,2013-09-22 01:42:00,
2013-09-21 20:50:00,63.0,-99.9,-100.00,ESE,103,3.0,4.0,-999,-99.99,,,-99.99,,2013-09-22 01:50:00,
2013-09-21 20:52:00,65.0,-99.9,-100.00,WNW,303,2.0,4.0,-999,-99.99,,,-99.99,,2013-09-22 01:52:00,
2013-09-21 21:42:00,63.0,-99.9,-100.00,ESE,103,3.0,4.0,-999,-99.99,,,-99.99,,2013-09-22 02:42:00,
2013-09-21 22:30:00,59.0,-99.9,-100.00,SE,139,2.0,5.0,-999,-99.99,,,-99.99,,2013-09-22 03:30:00,
2013-09-21 23:24:00,59.0,-99.9,-100.00,SE,139,2.0,5.0,-999,-99.99,,,-99.99,,2013-09-22 04:24:00,
2013-09-21 23:40:00,58.0,-99.9,-100.00,WNW,297,4.0,4.0,-999,-99.99,,,-99.99,,2013-09-22 04:40:00,